sensor_id;sensor_type;location;lat;lon;timestamp;pressure;altitude;pressure_sealevel;temperature;humidity
14269;BME280;7218;51.480;7.006;2023-08-06T00:01:25;98902.56;;;12.14;100.00
14269;BME280;7218;51.480;7.006;2023-08-06T00:03:51;98897.25;;;12.15;100.00
14269;BME280;7218;51.480;7.006;2023-08-06T00:06:18;98898.56;;;12.24;100.00
14269;BME280;7218;51.480;7.006;2023-08-06T00:08:46;98897.34;;;12.31;100.00
14269;BME280;7218;51.480;7.006;2023-08-06T00:11:12;98901.03;;;12.27;100.00
14269;BME280;7218;51.480;7.006;2023-08-06T00:13:39;98897.56;;;12.26;100.00
14269;BME280;7218;51.480;7.006;2023-08-06T00:16:10;98892.75;;;12.36;100.00
14269;BME280;7218;51.480;7.006;2023-08-06T00:18:36;98891.94;;;12.17;100.00
14269;BME280;7218;51.480;7.006;2023-08-06T00:21:03;98886.88;;;12.14;100.00
14269;BME280;7218;51.480;7.006;2023-08-06T00:23:29;98884.19;;;12.15;100.00
14269;BME280;7218;51.480;7.006;2023-08-06T00:25:57;98883.19;;;12.18;100.00
14269;BME280;7218;51.480;7.006;2023-08-06T00:28:23;98880.72;;;12.15;100.00
14269;BME280;7218;51.480;7.006;2023-08-06T00:30:52;98874.56;;;12.16;100.00
14269;BME280;7218;51.480;7.006;2023-08-06T00:33:19;98879.94;;;12.13;100.00
14269;BME280;7218;51.480;7.006;2023-08-06T00:35:45;98879.94;;;12.13;100.00
14269;BME280;7218;51.480;7.006;2023-08-06T00:38:12;98871.31;;;12.11;100.00
14269;BME280;7218;51.480;7.006;2023-08-06T00:40:39;98869.66;;;12.10;100.00
14269;BME280;7218;51.480;7.006;2023-08-06T00:43:07;98867.34;;;12.21;100.00
14269;BME280;7218;51.480;7.006;2023-08-06T00:45:35;98875.41;;;12.16;100.00
14269;BME280;7218;51.480;7.006;2023-08-06T00:48:01;98861.59;;;12.14;100.00
14269;BME280;7218;51.480;7.006;2023-08-06T00:50:29;98864.44;;;12.10;100.00
14269;BME280;7218;51.480;7.006;2023-08-06T00:52:56;98853.97;;;12.10;100.00
14269;BME280;7218;51.480;7.006;2023-08-06T00:55:24;98855.81;;;12.07;100.00
14269;BME280;7218;51.480;7.006;2023-08-06T00:57:50;98852.56;;;12.02;100.00
14269;BME280;7218;51.480;7.006;2023-08-06T01:00:19;98855.50;;;12.14;100.00
14269;BME280;7218;51.480;7.006;2023-08-06T01:02:48;98853.81;;;12.13;100.00
14269;BME280;7218;51.480;7.006;2023-08-06T01:05:14;98849.78;;;12.05;100.00
14269;BME280;7218;51.480;7.006;2023-08-06T01:07:50;98845.75;;;12.17;100.00
14269;BME280;7218;51.480;7.006;2023-08-06T01:10:29;98847.75;;;12.12;100.00
14269;BME280;7218;51.480;7.006;2023-08-06T01:13:06;98852.91;;;12.14;100.00
14269;BME280;7218;51.480;7.006;2023-08-06T01:15:42;98848.53;;;12.14;100.00
14269;BME280;7218;51.480;7.006;2023-08-06T01:18:10;98847.75;;;12.12;100.00
14269;BME280;7218;51.480;7.006;2023-08-06T01:20:38;98842.38;;;12.15;100.00
14269;BME280;7218;51.480;7.006;2023-08-06T01:23:04;98851.19;;;12.13;100.00
14269;BME280;7218;51.480;7.006;2023-08-06T01:25:35;98838.69;;;12.19;100.00
14269;BME280;7218;51.480;7.006;2023-08-06T01:28:11;98835.84;;;12.24;100.00
14269;BME280;7218;51.480;7.006;2023-08-06T01:30:42;98846.59;;;12.18;100.00
14269;BME280;7218;51.480;7.006;2023-08-06T01:33:11;98847.38;;;12.20;100.00
14269;BME280;7218;51.480;7.006;2023-08-06T01:35:42;98842.91;;;12.22;100.00
14269;BME280;7218;51.480;7.006;2023-08-06T01:38:08;98839.78;;;12.15;100.00
14269;BME280;7218;51.480;7.006;2023-08-06T01:40:35;98846.88;;;12.12;100.00
14269;BME280;7218;51.480;7.006;2023-08-06T01:43:01;98844.91;;;12.17;100.00
14269;BME280;7218;51.480;7.006;2023-08-06T01:45:28;98831.72;;;12.20;100.00
14269;BME280;7218;51.480;7.006;2023-08-06T01:47:54;98824.16;;;12.14;100.00
14269;BME280;7218;51.480;7.006;2023-08-06T01:50:21;98821.84;;;12.07;100.00
14269;BME280;7218;51.480;7.006;2023-08-06T01:52:49;98824.72;;;12.20;100.00
14269;BME280;7218;51.480;7.006;2023-08-06T01:55:15;98825.84;;;12.15;100.00
14269;BME280;7218;51.480;7.006;2023-08-06T01:57:43;98821.16;;;12.04;100.00
14269;BME280;7218;51.480;7.006;2023-08-06T02:00:11;98821.50;;;11.96;100.00
14269;BME280;7218;51.480;7.006;2023-08-06T02:02:38;98815.59;;;11.93;100.00
14269;BME280;7218;51.480;7.006;2023-08-06T02:05:06;98819.84;;;11.77;100.00
14269;BME280;7218;51.480;7.006;2023-08-06T02:07:32;98817.31;;;11.75;100.00
14269;BME280;7218;51.480;7.006;2023-08-06T02:10:00;98813.94;;;11.73;100.00
14269;BME280;7218;51.480;7.006;2023-08-06T02:12:27;98814.88;;;11.71;100.00
14269;BME280;7218;51.480;7.006;2023-08-06T02:14:53;98816.25;;;11.79;100.00
14269;BME280;7218;51.480;7.006;2023-08-06T02:17:20;98816.66;;;11.70;100.00
14269;BME280;7218;51.480;7.006;2023-08-06T02:19:46;98806.94;;;11.55;100.00
14269;BME280;7218;51.480;7.006;2023-08-06T02:22:13;98813.28;;;11.68;100.00
14269;BME280;7218;51.480;7.006;2023-08-06T02:24:39;98810.47;;;11.73;100.00
14269;BME280;7218;51.480;7.006;2023-08-06T02:27:07;98809.13;;;11.83;100.00
14269;BME280;7218;51.480;7.006;2023-08-06T02:29:34;98806.50;;;11.83;100.00
14269;BME280;7218;51.480;7.006;2023-08-06T02:32:00;98806.09;;;11.73;100.00
14269;BME280;7218;51.480;7.006;2023-08-06T02:34:27;98799.59;;;11.63;100.00
14269;BME280;7218;51.480;7.006;2023-08-06T02:36:54;98800.59;;;11.79;100.00
14269;BME280;7218;51.480;7.006;2023-08-06T02:39:20;98801.72;;;11.74;100.00
14269;BME280;7218;51.480;7.006;2023-08-06T02:41:47;98799.22;;;11.71;100.00
14269;BME280;7218;51.480;7.006;2023-08-06T02:44:15;98793.06;;;11.72;100.00
14269;BME280;7218;51.480;7.006;2023-08-06T02:46:44;98795.44;;;11.78;100.00
14269;BME280;7218;51.480;7.006;2023-08-06T02:49:10;98796.50;;;11.74;100.00
14269;BME280;7218;51.480;7.006;2023-08-06T02:51:37;98790.38;;;11.75;100.00
14269;BME280;7218;51.480;7.006;2023-08-06T02:54:03;98782.84;;;11.67;100.00
14269;BME280;7218;51.480;7.006;2023-08-06T02:56:30;98793.28;;;11.67;100.00
14269;BME280;7218;51.480;7.006;2023-08-06T02:58:57;98780.22;;;11.67;100.00
14269;BME280;7218;51.480;7.006;2023-08-06T03:01:25;98777.50;;;11.70;100.00
14269;BME280;7218;51.480;7.006;2023-08-06T03:03:52;98776.09;;;11.63;100.00
14269;BME280;7218;51.480;7.006;2023-08-06T03:06:18;98773.00;;;11.55;100.00
14269;BME280;7218;51.480;7.006;2023-08-06T03:08:44;98763.53;;;11.52;100.00
14269;BME280;7218;51.480;7.006;2023-08-06T03:11:11;98767.91;;;11.52;100.00
14269;BME280;7218;51.480;7.006;2023-08-06T03:13:37;98762.84;;;11.49;100.00
14269;BME280;7218;51.480;7.006;2023-08-06T03:16:04;98768.06;;;11.49;100.00
14269;BME280;7218;51.480;7.006;2023-08-06T03:18:32;98757.34;;;11.55;100.00
14269;BME280;7218;51.480;7.006;2023-08-06T03:20:58;98760.22;;;11.49;100.00
14269;BME280;7218;51.480;7.006;2023-08-06T03:23:25;98753.31;;;11.48;100.00
14269;BME280;7218;51.480;7.006;2023-08-06T03:25:51;98762.84;;;11.49;100.00
14269;BME280;7218;51.480;7.006;2023-08-06T03:28:18;98756.72;;;11.50;100.00
14269;BME280;7218;51.480;7.006;2023-08-06T03:30:45;98759.44;;;11.47;100.00
14269;BME280;7218;51.480;7.006;2023-08-06T03:33:11;98754.22;;;11.47;100.00
14269;BME280;7218;51.480;7.006;2023-08-06T03:35:39;98758.47;;;11.49;100.00
14269;BME280;7218;51.480;7.006;2023-08-06T03:38:06;98758.53;;;11.48;100.00
14269;BME280;7218;51.480;7.006;2023-08-06T03:40:34;98757.34;;;11.55;100.00
14269;BME280;7218;51.480;7.006;2023-08-06T03:43:01;98754.22;;;11.47;100.00
14269;BME280;7218;51.480;7.006;2023-08-06T03:45:27;98754.16;;;11.48;100.00
14269;BME280;7218;51.480;7.006;2023-08-06T03:47:54;98752.53;;;11.46;100.00
14269;BME280;7218;51.480;7.006;2023-08-06T03:50:20;98749.22;;;11.42;100.00
14269;BME280;7218;51.480;7.006;2023-08-06T03:52:48;98749.09;;;11.45;100.00
14269;BME280;7218;51.480;7.006;2023-08-06T03:55:15;98749.28;;;11.41;100.00
14269;BME280;7218;51.480;7.006;2023-08-06T03:57:41;98754.59;;;11.39;100.00
14269;BME280;7218;51.480;7.006;2023-08-06T04:00:08;98748.31;;;11.43;100.00
14269;BME280;7218;51.480;7.006;2023-08-06T04:02:35;98751.72;;;11.45;100.00
14269;BME280;7218;51.480;7.006;2023-08-06T04:05:01;98750.72;;;11.48;100.00
14269;BME280;7218;51.480;7.006;2023-08-06T04:07:28;98746.19;;;11.51;100.00
14269;BME280;7218;51.480;7.006;2023-08-06T04:09:58;98747.03;;;11.52;100.00
14269;BME280;7218;51.480;7.006;2023-08-06T04:12:24;98747.13;;;11.50;100.00
14269;BME280;7218;51.480;7.006;2023-08-06T04:14:51;98751.28;;;11.54;100.00
14269;BME280;7218;51.480;7.006;2023-08-06T04:17:18;98749.56;;;11.53;100.00
14269;BME280;7218;51.480;7.006;2023-08-06T04:19:47;98749.19;;;11.61;100.00
14269;BME280;7218;51.480;7.006;2023-08-06T04:22:13;98751.09;;;11.57;100.00
14269;BME280;7218;51.480;7.006;2023-08-06T04:24:41;98750.03;;;11.61;100.00
14269;BME280;7218;51.480;7.006;2023-08-06T04:27:09;98746.91;;;11.72;100.00
14269;BME280;7218;51.480;7.006;2023-08-06T04:29:36;98742.69;;;11.70;100.00
14269;BME280;7218;51.480;7.006;2023-08-06T04:32:05;98745.19;;;11.73;100.00
14269;BME280;7218;51.480;7.006;2023-08-06T04:34:32;98751.25;;;11.73;100.00
14269;BME280;7218;51.480;7.006;2023-08-06T04:36:58;98747.81;;;11.71;100.00
14269;BME280;7218;51.480;7.006;2023-08-06T04:39:25;98749.69;;;11.69;100.00
14269;BME280;7218;51.480;7.006;2023-08-06T04:41:51;98746.97;;;11.71;100.00
14269;BME280;7218;51.480;7.006;2023-08-06T04:44:20;98744.03;;;11.78;100.00
14269;BME280;7218;51.480;7.006;2023-08-06T04:46:47;98746.91;;;11.72;100.00
14269;BME280;7218;51.480;7.006;2023-08-06T04:49:13;98748.59;;;11.75;100.00
14269;BME280;7218;51.480;7.006;2023-08-06T04:51:40;98746.66;;;11.78;100.00
14269;BME280;7218;51.480;7.006;2023-08-06T04:54:06;98754.44;;;11.80;100.00
14269;BME280;7218;51.480;7.006;2023-08-06T04:56:33;98746.44;;;11.83;100.00
14269;BME280;7218;51.480;7.006;2023-08-06T04:58:59;98750.50;;;11.88;100.00
14269;BME280;7218;51.480;7.006;2023-08-06T05:01:27;98750.06;;;11.97;100.00
14269;BME280;7218;51.480;7.006;2023-08-06T05:03:54;98753.53;;;11.98;100.00
14269;BME280;7218;51.480;7.006;2023-08-06T05:06:20;98748.84;;;12.04;100.00
14269;BME280;7218;51.480;7.006;2023-08-06T05:08:47;98743.28;;;12.11;100.00
14269;BME280;7218;51.480;7.006;2023-08-06T05:11:13;98746.75;;;12.11;100.00
14269;BME280;7218;51.480;7.006;2023-08-06T05:13:40;98744.53;;;12.21;100.00
14269;BME280;7218;51.480;7.006;2023-08-06T05:16:06;98750.69;;;12.20;100.00
14269;BME280;7218;51.480;7.006;2023-08-06T05:18:34;98757.28;;;12.27;100.00
14269;BME280;7218;51.480;7.006;2023-08-06T05:21:02;98760.00;;;12.25;100.00
14269;BME280;7218;51.480;7.006;2023-08-06T05:23:29;98757.91;;;12.32;100.00
14269;BME280;7218;51.480;7.006;2023-08-06T05:25:56;98765.66;;;12.33;100.00
14269;BME280;7218;51.480;7.006;2023-08-06T05:28:22;98770.44;;;12.42;100.00
14269;BME280;7218;51.480;7.006;2023-08-06T05:30:49;98768.03;;;12.38;100.00
14269;BME280;7218;51.480;7.006;2023-08-06T05:33:16;98765.44;;;12.55;100.00
14269;BME280;7218;51.480;7.006;2023-08-06T05:35:43;98775.06;;;12.70;100.00
14269;BME280;7218;51.480;7.006;2023-08-06T05:38:10;98768.19;;;12.69;100.00
14269;BME280;7218;51.480;7.006;2023-08-06T05:40:36;98769.53;;;12.76;100.00
14269;BME280;7218;51.480;7.006;2023-08-06T05:43:03;98775.38;;;12.81;100.00
14269;BME280;7218;51.480;7.006;2023-08-06T05:45:29;98776.88;;;12.85;100.00
14269;BME280;7218;51.480;7.006;2023-08-06T05:47:56;98778.59;;;12.86;100.00
14269;BME280;7218;51.480;7.006;2023-08-06T05:50:23;98779.34;;;12.88;100.00
14269;BME280;7218;51.480;7.006;2023-08-06T05:52:51;98779.66;;;13.00;100.00
14269;BME280;7218;51.480;7.006;2023-08-06T05:55:18;98771.69;;;13.01;100.00
14269;BME280;7218;51.480;7.006;2023-08-06T05:57:45;98775.53;;;13.11;100.00
14269;BME280;7218;51.480;7.006;2023-08-06T06:00:11;98775.63;;;13.10;100.00
14269;BME280;7218;51.480;7.006;2023-08-06T06:02:38;98782.13;;;12.85;100.00
14269;BME280;7218;51.480;7.006;2023-08-06T06:05:05;98779.34;;;12.88;100.00
14269;BME280;7218;51.480;7.006;2023-08-06T06:07:31;98788.00;;;12.73;100.00
14269;BME280;7218;51.480;7.006;2023-08-06T06:09:59;98787.09;;;12.57;100.00
14269;BME280;7218;51.480;7.006;2023-08-06T06:12:26;98790.63;;;12.56;100.00
14269;BME280;7218;51.480;7.006;2023-08-06T06:14:52;98790.31;;;12.62;100.00
14269;BME280;7218;51.480;7.006;2023-08-06T06:17:19;98792.31;;;12.57;100.00
14269;BME280;7218;51.480;7.006;2023-08-06T06:19:45;98792.09;;;12.62;100.00
14269;BME280;7218;51.480;7.006;2023-08-06T06:22:12;98802.91;;;12.71;100.00
14269;BME280;7218;51.480;7.006;2023-08-06T06:24:38;98799.00;;;12.80;100.00
14269;BME280;7218;51.480;7.006;2023-08-06T06:27:06;98798.94;;;12.97;100.00
14269;BME280;7218;51.480;7.006;2023-08-06T06:29:33;98803.50;;;12.93;100.00
14269;BME280;7218;51.480;7.006;2023-08-06T06:31:59;98803.44;;;13.11;100.00
14269;BME280;7218;51.480;7.006;2023-08-06T06:34:25;98801.06;;;13.23;100.00
14269;BME280;7218;51.480;7.006;2023-08-06T06:36:52;98798.72;;;13.34;100.00
14269;BME280;7218;51.480;7.006;2023-08-06T06:39:22;98804.91;;;13.49;100.00
14269;BME280;7218;51.480;7.006;2023-08-06T06:41:48;98804.66;;;13.54;100.00
14269;BME280;7218;51.480;7.006;2023-08-06T06:44:16;98813.31;;;13.70;100.00
14269;BME280;7218;51.480;7.006;2023-08-06T06:46:42;98807.09;;;13.72;100.00
14269;BME280;7218;51.480;7.006;2023-08-06T06:49:09;98809.38;;;13.94;100.00
14269;BME280;7218;51.480;7.006;2023-08-06T06:51:35;98808.06;;;14.01;100.00
14269;BME280;7218;51.480;7.006;2023-08-06T06:54:02;98804.91;;;14.10;100.00
14269;BME280;7218;51.480;7.006;2023-08-06T06:56:28;98800.25;;;14.15;100.00
14269;BME280;7218;51.480;7.006;2023-08-06T06:58:55;98796.88;;;14.29;100.00
14269;BME280;7218;51.480;7.006;2023-08-06T07:01:22;98803.38;;;14.38;100.00
14269;BME280;7218;51.480;7.006;2023-08-06T07:03:49;98807.34;;;14.29;100.00
14269;BME280;7218;51.480;7.006;2023-08-06T07:06:15;98805.34;;;14.18;100.00
14269;BME280;7218;51.480;7.006;2023-08-06T07:08:43;98803.63;;;14.33;100.00
14269;BME280;7218;51.480;7.006;2023-08-06T07:11:10;98807.22;;;14.46;100.00
14269;BME280;7218;51.480;7.006;2023-08-06T07:13:36;98809.00;;;14.46;100.00
14269;BME280;7218;51.480;7.006;2023-08-06T07:16:03;98804.97;;;14.40;100.00
14269;BME280;7218;51.480;7.006;2023-08-06T07:18:31;98798.66;;;14.58;100.00
14269;BME280;7218;51.480;7.006;2023-08-06T07:20:57;98804.25;;;14.52;100.00
14269;BME280;7218;51.480;7.006;2023-08-06T07:23:25;98806.53;;;14.58;100.00
14269;BME280;7218;51.480;7.006;2023-08-06T07:25:52;98809.34;;;14.40;100.00
14269;BME280;7218;51.480;7.006;2023-08-06T07:28:18;98814.44;;;14.43;100.00
14269;BME280;7218;51.480;7.006;2023-08-06T07:30:45;98813.41;;;14.45;100.00
14269;BME280;7218;51.480;7.006;2023-08-06T07:33:12;98814.53;;;14.26;100.00
14269;BME280;7218;51.480;7.006;2023-08-06T07:35:39;98818.84;;;14.42;100.00
14269;BME280;7218;51.480;7.006;2023-08-06T07:38:06;98815.03;;;14.48;100.00
14269;BME280;7218;51.480;7.006;2023-08-06T07:40:35;98825.72;;;14.59;100.00
14269;BME280;7218;51.480;7.006;2023-08-06T07:43:01;98816.69;;;14.79;100.00
14269;BME280;7218;51.480;7.006;2023-08-06T07:45:32;98815.56;;;14.97;100.00
14269;BME280;7218;51.480;7.006;2023-08-06T07:47:59;98813.94;;;14.80;100.00
14269;BME280;7218;51.480;7.006;2023-08-06T07:50:25;98818.84;;;15.00;100.00
14269;BME280;7218;51.480;7.006;2023-08-06T07:52:53;98820.91;;;15.09;99.98
14269;BME280;7218;51.480;7.006;2023-08-06T07:55:20;98834.94;;;14.94;97.62
14269;BME280;7218;51.480;7.006;2023-08-06T07:57:46;98823.22;;;14.86;97.92
14269;BME280;7218;51.480;7.006;2023-08-06T08:00:13;98822.66;;;14.95;99.77
14269;BME280;7218;51.480;7.006;2023-08-06T08:02:39;98829.06;;;15.05;99.22
14269;BME280;7218;51.480;7.006;2023-08-06T08:05:06;98830.94;;;15.17;100.00
14269;BME280;7218;51.480;7.006;2023-08-06T08:07:33;98826.53;;;15.18;98.97
14269;BME280;7218;51.480;7.006;2023-08-06T08:10:01;98829.81;;;15.21;99.59
14269;BME280;7218;51.480;7.006;2023-08-06T08:12:28;98835.91;;;14.93;100.00
14269;BME280;7218;51.480;7.006;2023-08-06T08:14:55;98827.19;;;15.07;100.00
14269;BME280;7218;51.480;7.006;2023-08-06T08:17:21;98838.72;;;15.04;100.00
14269;BME280;7218;51.480;7.006;2023-08-06T08:19:48;98837.41;;;14.97;100.00
14269;BME280;7218;51.480;7.006;2023-08-06T08:22:14;98834.50;;;15.02;99.20
14269;BME280;7218;51.480;7.006;2023-08-06T08:24:41;98837.03;;;14.89;99.92
14269;BME280;7218;51.480;7.006;2023-08-06T08:27:09;98843.78;;;15.07;98.62
14269;BME280;7218;51.480;7.006;2023-08-06T08:29:35;98847.81;;;14.55;99.21
14269;BME280;7218;51.480;7.006;2023-08-06T08:32:02;98840.38;;;14.77;100.00
14269;BME280;7218;51.480;7.006;2023-08-06T08:34:28;98839.75;;;15.02;100.00
14269;BME280;7218;51.480;7.006;2023-08-06T08:36:55;98838.47;;;15.09;98.40
14269;BME280;7218;51.480;7.006;2023-08-06T08:39:22;98837.25;;;15.29;98.89
14269;BME280;7218;51.480;7.006;2023-08-06T08:41:48;98839.75;;;15.44;98.64
14269;BME280;7218;51.480;7.006;2023-08-06T08:44:16;98842.78;;;15.53;95.98
14269;BME280;7218;51.480;7.006;2023-08-06T08:46:43;98849.88;;;15.65;96.16
14269;BME280;7218;51.480;7.006;2023-08-06T08:49:10;98838.25;;;15.55;96.63
14269;BME280;7218;51.480;7.006;2023-08-06T08:51:37;98850.66;;;15.53;95.42
14269;BME280;7218;51.480;7.006;2023-08-06T08:54:04;98851.22;;;15.43;96.88
14269;BME280;7218;51.480;7.006;2023-08-06T08:56:31;98848.19;;;15.21;96.98
14269;BME280;7218;51.480;7.006;2023-08-06T08:58:58;98852.31;;;15.25;100.00
14269;BME280;7218;51.480;7.006;2023-08-06T09:01:26;98852.59;;;15.21;100.00
14269;BME280;7218;51.480;7.006;2023-08-06T09:03:54;98856.06;;;15.21;100.00
14269;BME280;7218;51.480;7.006;2023-08-06T09:06:23;98852.03;;;15.16;100.00
14269;BME280;7218;51.480;7.006;2023-08-06T09:08:57;98853.09;;;15.13;100.00
14269;BME280;7218;51.480;7.006;2023-08-06T09:11:27;98854.09;;;15.11;100.00
14269;BME280;7218;51.480;7.006;2023-08-06T09:13:54;98855.31;;;15.05;100.00
14269;BME280;7218;51.480;7.006;2023-08-06T09:16:22;98853.66;;;15.04;100.00
14269;BME280;7218;51.480;7.006;2023-08-06T09:18:49;98858.63;;;15.08;100.00
14269;BME280;7218;51.480;7.006;2023-08-06T09:21:16;98855.16;;;15.08;100.00
14269;BME280;7218;51.480;7.006;2023-08-06T09:23:42;98865.44;;;15.11;100.00
14269;BME280;7218;51.480;7.006;2023-08-06T09:26:11;98860.41;;;15.08;100.00
14269;BME280;7218;51.480;7.006;2023-08-06T09:28:39;98864.78;;;15.07;100.00
14269;BME280;7218;51.480;7.006;2023-08-06T09:31:08;98868.47;;;15.19;100.00
14269;BME280;7218;51.480;7.006;2023-08-06T09:33:36;98861.63;;;15.31;100.00
14269;BME280;7218;51.480;7.006;2023-08-06T09:36:11;98868.22;;;15.52;100.00
14269;BME280;7218;51.480;7.006;2023-08-06T09:38:38;98867.38;;;15.52;100.00
14269;BME280;7218;51.480;7.006;2023-08-06T09:41:06;98868.41;;;15.63;100.00
14269;BME280;7218;51.480;7.006;2023-08-06T09:43:39;98871.91;;;15.90;100.00
14269;BME280;7218;51.480;7.006;2023-08-06T09:46:10;98873.25;;;16.10;100.00
14269;BME280;7218;51.480;7.006;2023-08-06T09:48:38;98881.75;;;16.01;95.43
14269;BME280;7218;51.480;7.006;2023-08-06T09:51:05;98881.34;;;16.07;95.29
14269;BME280;7218;51.480;7.006;2023-08-06T09:53:34;98880.56;;;16.19;95.45
14269;BME280;7218;51.480;7.006;2023-08-06T09:56:02;98879.44;;;16.23;98.38
14269;BME280;7218;51.480;7.006;2023-08-06T09:58:30;98880.56;;;16.19;95.62
14269;BME280;7218;51.480;7.006;2023-08-06T10:00:57;98877.28;;;16.16;92.51
14269;BME280;7218;51.480;7.006;2023-08-06T10:03:25;98879.91;;;16.16;94.85
14269;BME280;7218;51.480;7.006;2023-08-06T10:05:51;98886.81;;;16.31;93.74
14269;BME280;7218;51.480;7.006;2023-08-06T10:08:18;98876.63;;;16.39;95.98
14269;BME280;7218;51.480;7.006;2023-08-06T10:10:46;98880.09;;;16.40;94.31
14269;BME280;7218;51.480;7.006;2023-08-06T10:13:13;98879.44;;;16.09;94.10
14269;BME280;7218;51.480;7.006;2023-08-06T10:15:40;98874.81;;;16.27;94.90
14269;BME280;7218;51.480;7.006;2023-08-06T10:18:06;98877.28;;;16.43;95.00
14269;BME280;7218;51.480;7.006;2023-08-06T10:20:33;98881.91;;;16.12;92.55
14269;BME280;7218;51.480;7.006;2023-08-06T10:23:05;98879.97;;;16.28;94.02
14269;BME280;7218;51.480;7.006;2023-08-06T10:25:33;98870.88;;;16.20;94.26
14269;BME280;7218;51.480;7.006;2023-08-06T10:28:07;98873.53;;;15.79;98.23
14269;BME280;7218;51.480;7.006;2023-08-06T10:30:41;98873.38;;;15.54;100.00
14269;BME280;7218;51.480;7.006;2023-08-06T10:33:08;98874.25;;;15.24;100.00
14269;BME280;7218;51.480;7.006;2023-08-06T10:35:36;98875.47;;;15.04;100.00
14269;BME280;7218;51.480;7.006;2023-08-06T10:38:04;98877.84;;;15.23;100.00
14269;BME280;7218;51.480;7.006;2023-08-06T10:40:31;98881.69;;;15.32;100.00
14269;BME280;7218;51.480;7.006;2023-08-06T10:42:58;98878.41;;;15.42;100.00
14269;BME280;7218;51.480;7.006;2023-08-06T10:45:26;98878.34;;;15.44;100.00
14269;BME280;7218;51.480;7.006;2023-08-06T10:47:54;98879.91;;;15.75;100.00
14269;BME280;7218;51.480;7.006;2023-08-06T10:50:21;98883.06;;;16.08;100.00
14269;BME280;7218;51.480;7.006;2023-08-06T10:52:47;98883.88;;;16.35;100.00
14269;BME280;7218;51.480;7.006;2023-08-06T10:55:22;98890.16;;;16.47;100.00
14269;BME280;7218;51.480;7.006;2023-08-06T10:57:49;98895.88;;;16.40;100.00
14269;BME280;7218;51.480;7.006;2023-08-06T11:00:15;98888.97;;;16.39;100.00
14269;BME280;7218;51.480;7.006;2023-08-06T11:02:43;98886.03;;;16.43;100.00
14269;BME280;7218;51.480;7.006;2023-08-06T11:05:10;98889.38;;;16.45;100.00
14269;BME280;7218;51.480;7.006;2023-08-06T11:07:37;98881.19;;;16.50;100.00
14269;BME280;7218;51.480;7.006;2023-08-06T11:10:06;98885.69;;;16.62;100.00
14269;BME280;7218;51.480;7.006;2023-08-06T11:12:34;98893.38;;;16.65;100.00
14269;BME280;7218;51.480;7.006;2023-08-06T11:15:01;98898.22;;;16.58;100.00
14269;BME280;7218;51.480;7.006;2023-08-06T11:17:29;98901.09;;;16.00;99.79
14269;BME280;7218;51.480;7.006;2023-08-06T11:19:58;98901.59;;;15.64;100.00
14269;BME280;7218;51.480;7.006;2023-08-06T11:22:25;98907.09;;;15.45;100.00
14269;BME280;7218;51.480;7.006;2023-08-06T11:24:53;98901.66;;;15.20;100.00
14269;BME280;7218;51.480;7.006;2023-08-06T11:27:19;98920.59;;;15.11;100.00
14269;BME280;7218;51.480;7.006;2023-08-06T11:29:46;98925.63;;;15.00;100.00
14269;BME280;7218;51.480;7.006;2023-08-06T11:32:12;98923.38;;;14.94;100.00
14269;BME280;7218;51.480;7.006;2023-08-06T11:34:39;98924.88;;;14.98;100.00
14269;BME280;7218;51.480;7.006;2023-08-06T11:37:07;98922.81;;;14.89;100.00
14269;BME280;7218;51.480;7.006;2023-08-06T11:39:35;98925.13;;;14.79;100.00
14269;BME280;7218;51.480;7.006;2023-08-06T11:42:03;98939.78;;;14.20;100.00
14269;BME280;7218;51.480;7.006;2023-08-06T11:44:30;98940.31;;;13.47;100.00
14269;BME280;7218;51.480;7.006;2023-08-06T11:46:58;98948.56;;;13.05;100.00
14269;BME280;7218;51.480;7.006;2023-08-06T11:49:40;98943.00;;;12.60;100.00
14269;BME280;7218;51.480;7.006;2023-08-06T11:52:10;98953.72;;;12.72;100.00
14269;BME280;7218;51.480;7.006;2023-08-06T11:54:37;98958.53;;;12.27;100.00
14269;BME280;7218;51.480;7.006;2023-08-06T11:57:05;98961.31;;;12.24;100.00
14269;BME280;7218;51.480;7.006;2023-08-06T11:59:31;98957.66;;;12.09;100.00
14269;BME280;7218;51.480;7.006;2023-08-06T12:02:00;98956.84;;;12.26;100.00
14269;BME280;7218;51.480;7.006;2023-08-06T12:04:26;98967.09;;;11.93;100.00
14269;BME280;7218;51.480;7.006;2023-08-06T12:06:53;98966.09;;;11.77;100.00
14269;BME280;7218;51.480;7.006;2023-08-06T12:09:21;98965.56;;;11.69;100.00
14269;BME280;7218;51.480;7.006;2023-08-06T12:11:47;98969.28;;;11.83;100.00
14269;BME280;7218;51.480;7.006;2023-08-06T12:14:14;98970.34;;;11.59;100.00
14269;BME280;7218;51.480;7.006;2023-08-06T12:16:40;98982.75;;;11.54;100.00
14269;BME280;7218;51.480;7.006;2023-08-06T12:19:07;98978.47;;;11.72;100.00
14269;BME280;7218;51.480;7.006;2023-08-06T12:21:33;98982.06;;;11.89;100.00
14269;BME280;7218;51.480;7.006;2023-08-06T12:24:00;98976.97;;;11.86;100.00
14269;BME280;7218;51.480;7.006;2023-08-06T12:26:27;98986.22;;;12.12;100.00
14269;BME280;7218;51.480;7.006;2023-08-06T12:28:54;98986.78;;;12.37;100.00
14269;BME280;7218;51.480;7.006;2023-08-06T12:31:22;98999.78;;;12.01;100.00
14269;BME280;7218;51.480;7.006;2023-08-06T12:33:49;98995.63;;;12.16;100.00
14269;BME280;7218;51.480;7.006;2023-08-06T12:36:15;99001.47;;;12.21;100.00
14269;BME280;7218;51.480;7.006;2023-08-06T12:38:42;99013.63;;;12.03;100.00
14269;BME280;7218;51.480;7.006;2023-08-06T12:41:08;99013.16;;;11.95;100.00
14269;BME280;7218;51.480;7.006;2023-08-06T12:43:36;99013.50;;;12.25;100.00
14269;BME280;7218;51.480;7.006;2023-08-06T12:46:02;99019.63;;;12.05;100.00
14269;BME280;7218;51.480;7.006;2023-08-06T12:48:29;99022.59;;;11.79;100.00
14269;BME280;7218;51.480;7.006;2023-08-06T12:50:56;99019.63;;;11.87;100.00
14269;BME280;7218;51.480;7.006;2023-08-06T12:53:22;99036.16;;;12.06;100.00
14269;BME280;7218;51.480;7.006;2023-08-06T12:55:49;99026.81;;;12.00;100.00
14269;BME280;7218;51.480;7.006;2023-08-06T12:58:15;99032.75;;;11.85;100.00
14269;BME280;7218;51.480;7.006;2023-08-06T13:00:43;99030.50;;;11.96;100.00
14269;BME280;7218;51.480;7.006;2023-08-06T13:03:09;99034.75;;;12.18;100.00